Time;durP1;ratioP1;P1;durP2;ratioP2;P2;SDS_P1;SDS_P2;PMS_P1;PMS_P2;Temp;Humidity;BMP_temperature;BMP_pressure;BME280_temperature;BME280_humidity;BME280_pressure;Samples;Min_cycle;Max_cycle;Signal;HPM_P1;HPM_P2
2023/02/11 00:00:41;;;;;;;;;;;;;;;0.75;65.89;102002.97;1087723;54;19933;-82
2023/02/11 00:01:44;;;;;;;;;;;;;;;0.75;65.69;102002.09;1087784;54;19927;-81
2023/02/11 00:02:48;;;;;;;;;;;;;;;0.76;65.73;101995.94;1087717;54;19941;-82
2023/02/11 00:03:49;;;;;;;;;;;;;;;0.73;65.71;102001.25;1087751;54;19938;-82
2023/02/11 00:04:53;;;;;;;;;;;;;;;0.66;65.83;101992.66;1087791;54;20264;-82
2023/02/11 00:07:01;;;;;;;;;;;;;;;0.52;66.33;101994.69;1087938;54;19922;-82
2023/02/11 00:08:02;;;;;;;;;;;;;;;0.49;66.58;101989.47;1087822;54;19942;-82
2023/02/11 00:09:06;;;;;;;;;;;;;;;0.43;66.53;101999.25;1087986;54;19935;-82
2023/02/11 00:10:07;;;;;;;;;;;;;;;0.40;66.61;102004.56;1087936;54;19934;-83
2023/02/11 00:11:14;;;;;;;;;;;;;;;0.50;66.49;101999.13;1089759;39;20758;-82
2023/02/11 00:12:18;;;;;;;;;;;;;;;0.42;66.58;101997.50;1087783;54;19966;-82
2023/02/11 00:13:22;;;;;;;;;;;;;;;0.39;66.78;101997.56;1087803;54;19943;-85
2023/02/11 00:14:23;;;;;;;;;;;;;;;0.43;66.92;102001.00;1087750;54;19939;-82
2023/02/11 00:15:27;;;;;;;;;;;;;;;0.42;66.82;102002.78;1087747;54;19957;-82
2023/02/11 00:16:28;;;;;;;;;;;;;;;0.48;66.55;101999.16;1087843;54;19934;-82
2023/02/11 00:17:36;;;;;;;;;;;;;;;0.57;66.31;101998.97;1087872;54;20012;-82
2023/02/11 00:18:38;;;;;;;;;;;;;;;0.58;66.03;102000.69;1087737;54;19943;-83
2023/02/11 00:19:41;;;;;;;;;;;;;;;0.59;66.25;101996.28;1087673;54;19957;-82
2023/02/11 00:20:43;;;;;;;;;;;;;;;0.61;65.93;101997.97;1087130;54;19994;-81
2023/02/11 00:21:47;;;;;;;;;;;;;;;0.65;65.87;102003.19;1087212;54;19942;-81
2023/02/11 00:22:48;;;;;;;;;;;;;;;0.66;66.02;102003.19;1087336;54;19926;-81
2023/02/11 00:23:53;;;;;;;;;;;;;;;0.63;65.89;102003.25;1087044;54;19950;-80
2023/02/11 00:24:55;;;;;;;;;;;;;;;0.52;66.19;101999.97;1087284;54;19970;-82
2023/02/11 00:25:59;;;;;;;;;;;;;;;0.53;66.31;102002.53;1087300;54;20002;-82
2023/02/11 00:27:00;;;;;;;;;;;;;;;0.58;66.17;102005.97;1087219;54;19945;-81
2023/02/11 00:28:04;;;;;;;;;;;;;;;0.55;66.33;102013.91;1087314;54;19942;-82
2023/02/11 00:29:05;;;;;;;;;;;;;;;0.50;66.40;102009.66;1087380;54;19947;-81
2023/02/11 00:30:10;;;;;;;;;;;;;;;0.48;66.46;102007.06;1087634;54;19943;-80
2023/02/11 00:31:11;;;;;;;;;;;;;;;0.39;66.52;102010.72;1087363;54;19971;-81
2023/02/11 00:32:15;;;;;;;;;;;;;;;0.38;66.55;102008.13;1087735;54;19953;-82
2023/02/11 00:33:19;;;;;;;;;;;;;;;0.38;66.42;102009.00;1087690;54;19946;-81
2023/02/11 00:34:22;;;;;;;;;;;;;;;0.35;66.85;102003.81;1087653;54;19973;-82
2023/02/11 00:35:23;;;;;;;;;;;;;;;0.36;66.65;102012.56;1087500;54;19941;-82
2023/02/11 00:36:29;;;;;;;;;;;;;;;0.40;66.56;102009.84;1087732;54;19958;-83
2023/02/11 00:37:30;;;;;;;;;;;;;;;0.40;66.74;102003.72;1087651;54;19950;-81
2023/02/11 00:38:33;;;;;;;;;;;;;;;0.36;66.57;102000.28;1091697;39;20352;-81
2023/02/11 00:39:35;;;;;;;;;;;;;;;0.21;66.84;101998.81;1087637;54;19942;-80
2023/02/11 00:40:39;;;;;;;;;;;;;;;0.25;67.18;101992.59;1087493;54;19943;-80
2023/02/11 00:41:40;;;;;;;;;;;;;;;0.26;67.11;101993.47;1087509;54;19946;-82
2023/02/11 00:42:44;;;;;;;;;;;;;;;0.19;67.39;101986.59;1087524;54;20000;-81
2023/02/11 00:43:45;;;;;;;;;;;;;;;0.18;67.19;101990.13;1087341;54;19942;-81
2023/02/11 00:44:49;;;;;;;;;;;;;;;0.22;67.47;101990.03;1087639;54;19950;-81
2023/02/11 00:45:50;;;;;;;;;;;;;;;0.25;67.17;101987.31;1087672;54;19946;-81
2023/02/11 00:46:53;;;;;;;;;;;;;;;0.21;67.45;101984.78;1087677;54;19954;-83
2023/02/11 00:47:55;;;;;;;;;;;;;;;0.17;67.41;101988.41;1087943;54;20540;-85
2023/02/11 00:49:02;;;;;;;;;;;;;;;0.10;67.76;101980.59;1088589;54;19934;-84
2023/02/11 00:50:04;;;;;;;;;;;;;;;0.07;67.95;101977.16;1088612;54;19962;-83
2023/02/11 00:51:08;;;;;;;;;;;;;;;0.04;68.28;101972.84;1088694;46;19993;-83
2023/02/11 00:52:09;;;;;;;;;;;;;;;0.00;68.41;101971.19;1092647;39;20573;-84
2023/02/11 00:53:13;;;;;;;;;;;;;;;0.02;68.23;101966.75;1088526;54;19943;-82
2023/02/11 00:54:14;;;;;;;;;;;;;;;0.07;68.30;101962.28;1088524;54;19943;-83
2023/02/11 00:55:20;;;;;;;;;;;;;;;0.02;68.50;101966.75;1088533;54;19942;-84
2023/02/11 00:56:21;;;;;;;;;;;;;;;0.08;68.21;101963.13;1088553;54;19943;-84
2023/02/11 00:57:25;;;;;;;;;;;;;;;0.01;68.46;101962.38;1088522;54;19926;-84
2023/02/11 00:58:27;;;;;;;;;;;;;;;0.00;68.50;101963.28;1088584;54;19942;-84
2023/02/11 00:59:31;;;;;;;;;;;;;;;0.01;68.38;101962.38;1088599;54;19930;-83
2023/02/11 01:00:32;;;;;;;;;;;;;;;0.00;68.36;101960.66;1088468;54;19926;-82
2023/02/11 01:01:36;;;;;;;;;;;;;;;0.10;68.08;101971.84;1088600;54;19987;-82
2023/02/11 01:02:37;;;;;;;;;;;;;;;0.05;68.03;101969.31;1088651;54;19930;-85
2023/02/11 01:04:46;;;;;;;;;;;;;;;-0.04;68.13;101975.59;1088562;54;20661;-84
2023/02/11 01:05:48;;;;;;;;;;;;;;;-0.10;68.25;101969.63;1088534;54;19939;-83
2023/02/11 01:06:52;;;;;;;;;;;;;;;-0.07;68.27;101967.81;1088527;54;19950;-84
2023/02/11 01:07:54;;;;;;;;;;;;;;;-0.11;68.17;101967.88;1088515;54;19927;-84
2023/02/11 01:08:58;;;;;;;;;;;;;;;-0.13;68.33;101970.53;1089599;39;20732;-84
2023/02/11 01:11:06;;;;;;;;;;;;;;;-0.04;68.28;101974.75;1088489;54;19923;-83
2023/02/11 01:12:07;;;;;;;;;;;;;;;-0.08;68.38;101967.81;1089888;39;20558;-83
2023/02/11 01:13:11;;;;;;;;;;;;;;;-0.02;68.17;101973.81;1088259;54;19943;-83
2023/02/11 01:14:12;;;;;;;;;;;;;;;0.03;67.97;101973.72;1088256;54;19927;-83
2023/02/11 01:15:17;;;;;;;;;;;;;;;0.05;68.01;101973.72;1088301;54;19926;-84
2023/02/11 01:16:18;;;;;;;;;;;;;;;0.12;67.75;101975.34;1088249;54;19952;-82
2023/02/11 01:17:23;;;;;;;;;;;;;;;0.17;67.45;101965.56;1088291;54;20654;-83
2023/02/11 01:18:24;;;;;;;;;;;;;;;0.15;67.36;101964.72;1088049;54;19951;-82
2023/02/11 01:19:28;;;;;;;;;;;;;;;0.10;67.51;101969.22;1089331;46;19951;-83
2023/02/11 01:20:32;;;;;;;;;;;;;;;0.22;67.41;101978.63;1088267;54;19951;-83
2023/02/11 01:21:36;;;;;;;;;;;;;;;0.23;67.14;101972.47;1089090;46;19941;-81
2023/02/11 01:22:38;;;;;;;;;;;;;;;0.17;67.47;101962.09;1088506;46;19946;-81
2023/02/11 01:23:42;;;;;;;;;;;;;;;0.20;67.31;101970.78;1088142;54;19973;-81
2023/02/11 01:24:43;;;;;;;;;;;;;;;0.26;67.04;101969.78;1088200;54;19931;-82
2023/02/11 01:25:49;;;;;;;;;;;;;;;0.15;67.47;101973.50;1088093;54;20579;-83
2023/02/11 01:26:50;;;;;;;;;;;;;;;0.08;67.67;101964.00;1088070;54;20042;-82
2023/02/11 01:27:54;;;;;;;;;;;;;;;0.06;67.76;101965.78;1088028;54;19958;-82
2023/02/11 01:28:59;;;;;;;;;;;;;;;0.14;67.54;101969.13;1088067;54;19953;-82
2023/02/11 01:30:00;;;;;;;;;;;;;;;0.26;67.23;101967.16;1088212;54;19966;-82
2023/02/11 01:31:05;;;;;;;;;;;;;;;0.18;67.60;101966.44;1088033;54;20015;-83
2023/02/11 01:32:06;;;;;;;;;;;;;;;0.11;67.76;101963.94;1088065;54;19946;-81
2023/02/11 01:33:10;;;;;;;;;;;;;;;0.09;67.89;101968.38;1088151;54;19962;-83
2023/02/11 01:34:11;;;;;;;;;;;;;;;0.12;67.78;101963.03;1088025;54;20001;-81
2023/02/11 01:35:15;;;;;;;;;;;;;;;0.09;67.75;101971.00;1087982;54;19954;-82
2023/02/11 01:36:19;;;;;;;;;;;;;;;0.12;67.77;101965.66;1087911;54;19943;-83
2023/02/11 01:37:22;;;;;;;;;;;;;;;0.15;67.93;101973.50;1087861;54;19962;-82
2023/02/11 01:38:25;;;;;;;;;;;;;;;0.20;67.73;101969.91;1087911;54;20398;-82
2023/02/11 01:39:29;;;;;;;;;;;;;;;0.33;67.46;101970.53;1087829;54;19942;-84
2023/02/11 01:40:30;;;;;;;;;;;;;;;0.32;67.53;101964.41;1087576;54;19943;-82
2023/02/11 01:41:33;;;;;;;;;;;;;;;0.41;67.25;101960.72;1087432;54;19950;-81
2023/02/11 01:42:35;;;;;;;;;;;;;;;0.43;66.96;101967.69;1087633;54;19966;-82
2023/02/11 01:43:40;;;;;;;;;;;;;;;0.35;67.55;101966.97;1087502;54;20087;-82
2023/02/11 01:44:41;;;;;;;;;;;;;;;0.34;68.02;101966.97;1087385;54;19974;-82
2023/02/11 01:45:57;;;;;;;;;;;;;;;0.37;67.70;101964.28;1089320;39;20369;-81
2023/02/11 01:46:58;;;;;;;;;;;;;;;0.36;67.94;101963.44;1087489;54;19946;-83
2023/02/11 01:48:02;;;;;;;;;;;;;;;0.32;67.72;101961.75;1087448;54;19969;-82
2023/02/11 01:49:04;;;;;;;;;;;;;;;0.42;67.77;101965.94;1087523;54;19947;-82
2023/02/11 01:50:08;;;;;;;;;;;;;;;0.51;67.18;101966.63;1087372;54;19949;-83
2023/02/11 01:51:12;;;;;;;;;;;;;;;0.58;67.16;101962.97;1087828;54;19949;-82
2023/02/11 01:52:21;;;;;;;;;;;;;;;0.62;66.74;101969.91;1088476;54;19943;-85
2023/02/11 01:58:04;;;;;;;;;;;;;;;0.72;66.25;101965.28;1088461;54;19927;-85
2023/02/11 01:59:07;;;;;;;;;;;;;;;0.79;66.31;101961.66;1088607;54;19927;-85
2023/02/11 02:00:12;;;;;;;;;;;;;;;0.78;66.05;101955.50;1088595;54;19927;-85
2023/02/11 02:01:16;;;;;;;;;;;;;;;0.67;66.22;101954.88;1088483;54;19942;-83
2023/02/11 02:02:24;;;;;;;;;;;;;;;0.56;66.74;101954.25;1088521;54;19934;-85
2023/02/11 02:04:34;;;;;;;;;;;;;;;0.35;67.42;101940.66;1088474;54;20676;-84
2023/02/11 02:06:50;;;;;;;;;;;;;;;0.26;67.94;101933.81;1088511;54;19946;-84
2023/02/11 02:07:57;;;;;;;;;;;;;;;0.25;68.15;101928.59;1088530;54;19943;-85
2023/02/11 02:09:04;;;;;;;;;;;;;;;0.19;68.46;101926.94;1088547;39;20541;-84
2023/02/11 02:11:17;;;;;;;;;;;;;;;0.24;68.89;101916.34;1087881;54;19943;-84
2023/02/11 02:13:24;;;;;;;;;;;;;;;0.43;68.08;101920.31;1088469;54;19923;-84
2023/02/11 02:14:25;;;;;;;;;;;;;;;0.45;67.89;101915.88;1088484;54;20835;-85
2023/02/11 02:16:35;;;;;;;;;;;;;;;0.53;67.58;101918.31;1088519;54;19934;-85
2023/02/11 02:17:38;;;;;;;;;;;;;;;0.52;67.61;101924.47;1095147;46;19942;-85
2023/02/11 02:24:24;;;;;;;;;;;;;;;0.46;68.08;101909.72;1076553;54;19946;31
2023/02/11 02:37:20;;;;;;;;;;;;;;;0.41;68.36;101893.16;1088398;54;19938;-83
2023/02/11 02:38:23;;;;;;;;;;;;;;;0.39;68.09;101889.69;1088554;54;19927;-84
2023/02/11 02:39:29;;;;;;;;;;;;;;;0.39;68.17;101883.56;1088437;54;19942;-85
2023/02/11 02:40:32;;;;;;;;;;;;;;;0.37;68.18;101885.34;1088445;54;19926;-83
2023/02/11 02:41:37;;;;;;;;;;;;;;;0.38;68.45;101887.09;1088396;54;19933;-84
2023/02/11 02:42:39;;;;;;;;;;;;;;;0.34;68.32;101878.41;1088374;54;19943;-83
2023/02/11 02:43:43;;;;;;;;;;;;;;;0.35;68.60;101876.63;1088413;54;20633;-84
2023/02/11 02:44:47;;;;;;;;;;;;;;;0.38;68.34;101866.91;1088437;54;20597;-82
2023/02/11 02:45:50;;;;;;;;;;;;;;;0.34;68.64;101875.78;1088362;54;19927;-85
2023/02/11 02:47:55;;;;;;;;;;;;;;;0.36;68.57;101868.72;1088258;54;19942;-84
2023/02/11 02:48:57;;;;;;;;;;;;;;;0.38;68.52;101866.91;1088393;54;19942;-85
2023/02/11 02:53:28;;;;;;;;;;;;;;;0.43;68.52;101867.66;1076847;54;19954;31
2023/02/11 03:00:03;;;;;;;;;;;;;;;0.39;68.65;101866.00;1088399;54;19939;-83
2023/02/11 03:01:11;;;;;;;;;;;;;;;0.44;68.91;101861.50;1088326;54;19942;-83
2023/02/11 03:03:23;;;;;;;;;;;;;;;0.44;68.87;101861.50;1088268;54;19939;-83
2023/02/11 03:04:28;;;;;;;;;;;;;;;0.53;68.69;101870.09;1088333;54;19931;-82
2023/02/11 03:05:35;;;;;;;;;;;;;;;0.63;68.31;101868.97;1088255;54;19994;-83
2023/02/11 03:06:41;;;;;;;;;;;;;;;0.69;68.16;101865.34;1088271;54;19934;-83
2023/02/11 03:07:47;;;;;;;;;;;;;;;0.78;67.76;101871.22;1088324;54;19927;-83
2023/02/11 03:08:56;;;;;;;;;;;;;;;0.83;67.49;101865.00;1089921;39;20626;-84
2023/02/11 03:10:01;;;;;;;;;;;;;;;0.83;67.48;101863.22;1088357;54;19926;-83
2023/02/11 03:11:03;;;;;;;;;;;;;;;0.88;67.25;101852.56;1090546;46;19943;-83
2023/02/11 03:12:08;;;;;;;;;;;;;;;0.86;67.50;101852.63;1088268;54;20715;-83
2023/02/11 03:13:10;;;;;;;;;;;;;;;0.96;67.46;101852.41;1088275;54;20621;-82
2023/02/11 03:14:16;;;;;;;;;;;;;;;0.93;67.27;101854.19;1088319;54;19927;-85
2023/02/11 03:15:19;;;;;;;;;;;;;;;0.98;67.30;101846.19;1088368;54;20677;-84
2023/02/11 03:16:24;;;;;;;;;;;;;;;1.07;67.00;101845.94;1088318;54;19943;-84
2023/02/11 03:17:30;;;;;;;;;;;;;;;1.14;66.76;101846.66;1088198;54;19935;-85
2023/02/11 03:18:32;;;;;;;;;;;;;;;1.20;66.76;101851.75;1089115;47;20613;-84
2023/02/11 03:19:39;;;;;;;;;;;;;;;1.20;66.58;101850.91;1088386;54;19923;-84
2023/02/11 03:20:42;;;;;;;;;;;;;;;1.23;66.43;101856.06;1088266;54;19966;-82
2023/02/11 03:21:48;;;;;;;;;;;;;;;1.24;66.54;101852.53;1088294;54;19954;-82
2023/02/11 03:22:52;;;;;;;;;;;;;;;1.29;66.28;101849.78;1088321;54;19942;-83
2023/02/11 03:24:09;;;;;;;;;;;;;;;1.27;66.19;101854.25;1088205;54;19923;-81
2023/02/11 03:25:10;;;;;;;;;;;;;;;1.24;66.38;101858.69;1088340;54;19938;-84
2023/02/11 03:26:18;;;;;;;;;;;;;;;1.22;66.40;101863.13;1088335;54;19927;-83
2023/02/11 03:27:20;;;;;;;;;;;;;;;1.23;66.54;101861.34;1088283;54;19927;-83
2023/02/11 03:28:30;;;;;;;;;;;;;;;1.28;66.45;101859.47;1088384;54;19987;-82
2023/02/11 03:29:34;;;;;;;;;;;;;;;1.28;66.55;101864.72;1089824;47;19942;-84
2023/02/11 03:30:42;;;;;;;;;;;;;;;1.32;66.28;101866.41;1088241;54;19939;-82
2023/02/11 03:31:46;;;;;;;;;;;;;;;1.37;66.29;101861.00;1088574;47;19934;-82
2023/02/11 03:32:52;;;;;;;;;;;;;;;1.42;66.00;101866.16;1089390;47;19934;-82
2023/02/11 03:33:56;;;;;;;;;;;;;;;1.44;66.04;101864.31;1088508;47;19930;-82
2023/02/11 03:36:13;;;;;;;;;;;;;;;1.46;66.09;101870.41;1088484;54;19931;-85
2023/02/11 03:37:20;;;;;;;;;;;;;;;1.46;65.69;101868.66;1085254;47;19943;31
2023/02/11 03:39:36;;;;;;;;;;;;;;;1.49;65.86;101868.56;1088512;54;19930;-85
2023/02/11 03:40:39;;;;;;;;;;;;;;;1.36;65.82;101864.53;1093786;39;20577;-82
2023/02/11 03:41:44;;;;;;;;;;;;;;;1.38;65.98;101870.63;1088242;54;19945;-82
2023/02/11 03:42:48;;;;;;;;;;;;;;;1.31;65.93;101859.41;1090934;47;19947;-83
2023/02/11 03:43:54;;;;;;;;;;;;;;;1.35;66.14;101861.03;1097720;47;19947;-82
2023/02/11 03:44:58;;;;;;;;;;;;;;;1.31;65.97;101864.66;1096101;47;19930;-84
2023/02/11 03:47:07;;;;;;;;;;;;;;;1.16;66.43;101872.94;1088621;54;19952;-85
2023/02/11 03:57:12;;;;;;;;;;;;;;;1.27;66.59;101859.53;1088401;54;19960;-83
2023/02/11 04:03:34;;;;;;;;;;;;;;;1.18;66.81;101848.28;1088605;54;19927;-83
2023/02/11 04:04:36;;;;;;;;;;;;;;;1.09;66.73;101857.31;1088631;54;19942;-85
2023/02/11 04:05:40;;;;;;;;;;;;;;;1.21;66.84;101863.19;1118003;31;20551;-82
2023/02/11 04:06:42;;;;;;;;;;;;;;;1.34;66.54;101855.81;1100422;39;20538;-84
2023/02/11 04:09:52;;;;;;;;;;;;;;;1.35;66.08;101860.19;1088688;54;19934;-84
2023/02/11 04:10:53;;;;;;;;;;;;;;;1.35;65.93;101863.66;1088569;54;20665;-83
2023/02/11 04:11:57;;;;;;;;;;;;;;;1.30;66.28;101869.97;1088578;54;19943;-84
2023/02/11 04:13:00;;;;;;;;;;;;;;;1.30;66.35;101867.31;1088583;54;19931;-84
2023/02/11 04:14:04;;;;;;;;;;;;;;;1.32;66.16;101868.16;1088443;54;19954;-82
2023/02/11 04:15:07;;;;;;;;;;;;;;;1.40;66.20;101874.09;1088550;54;19950;-84
2023/02/11 04:16:10;;;;;;;;;;;;;;;1.46;65.85;101868.66;1096838;31;20578;-83
2023/02/11 04:17:12;;;;;;;;;;;;;;;1.56;65.75;101871.91;1088454;54;19974;-81
2023/02/11 04:36:34;;;;;;;;;;;;;;;1.49;65.14;101862.44;1091911;46;19958;-84
2023/02/11 04:39:44;;;;;;;;;;;;;;;1.47;65.34;101858.97;1089080;54;19938;-85
2023/02/11 04:45:02;;;;;;;;;;;;;;;1.41;65.49;101846.81;1088625;54;19974;-85
2023/02/11 04:46:03;;;;;;;;;;;;;;;1.38;65.32;101849.53;1094470;46;19931;-83
2023/02/11 04:47:08;;;;;;;;;;;;;;;1.41;65.62;101846.81;1088643;54;19938;-84
2023/02/11 04:48:09;;;;;;;;;;;;;;;1.47;65.34;101853.69;1094535;46;19945;-84
2023/02/11 04:49:14;;;;;;;;;;;;;;;1.49;65.20;101852.75;1088655;54;19927;-83
2023/02/11 04:50:15;;;;;;;;;;;;;;;1.46;65.39;101841.44;1088626;54;19934;-83
2023/02/11 04:51:19;;;;;;;;;;;;;;;1.44;65.48;101836.22;1088573;54;19927;-84
2023/02/11 04:53:28;;;;;;;;;;;;;;;1.35;65.84;101839.94;1088531;54;19942;-84
2023/02/11 04:57:41;;;;;;;;;;;;;;;1.36;66.14;101822.38;1088614;54;20011;-84
2023/02/11 05:03:11;;;;;;;;;;;;;;;1.38;65.81;101807.34;1088123;51;19935;-84
2023/02/11 05:04:13;;;;;;;;;;;;;;;1.34;65.71;101809.22;1088646;54;19926;-85
2023/02/11 05:05:17;;;;;;;;;;;;;;;1.45;65.56;101800.16;1089826;46;19979;-85
2023/02/11 05:09:42;;;;;;;;;;;;;;;1.47;65.29;101806.25;1088485;54;19931;-84
2023/02/11 05:10:45;;;;;;;;;;;;;;;1.54;64.80;101803.41;1089096;46;19939;-83
2023/02/11 05:12:52;;;;;;;;;;;;;;;1.45;64.77;101803.66;1088883;54;19969;-84
2023/02/11 05:13:53;;;;;;;;;;;;;;;1.49;64.90;101796.53;1088794;46;19938;-81
2023/02/11 05:14:57;;;;;;;;;;;;;;;1.48;64.76;101802.72;1089012;46;19930;-84
2023/02/11 05:15:58;;;;;;;;;;;;;;;1.55;64.61;101804.25;1089771;46;19927;-84
2023/02/11 05:17:04;;;;;;;;;;;;;;;1.55;64.42;101812.16;1088741;46;19945;-84
2023/02/11 05:18:05;;;;;;;;;;;;;;;1.62;64.41;101799.69;1088531;54;19942;-83
2023/02/11 05:19:09;;;;;;;;;;;;;;;1.67;64.29;101803.91;1088360;54;19946;-82
2023/02/11 05:20:10;;;;;;;;;;;;;;;1.70;64.10;101805.59;1088478;54;19942;-82
2023/02/11 05:21:15;;;;;;;;;;;;;;;1.74;64.19;101799.34;1093435;46;19942;-82
2023/02/11 05:22:16;;;;;;;;;;;;;;;1.79;64.10;101810.59;1095382;46;19923;-85
2023/02/11 05:23:21;;;;;;;;;;;;;;;1.89;63.74;101812.97;1088470;54;19939;-82
2023/02/11 05:24:22;;;;;;;;;;;;;;;1.95;63.63;101804.84;1088415;54;19934;-83
2023/02/11 05:25:28;;;;;;;;;;;;;;;1.98;63.33;101810.94;1088539;54;19962;-82
2023/02/11 05:28:47;;;;;;;;;;;;;;;2.09;63.10;101815.00;1088965;54;19931;-84
2023/02/11 05:36:34;;;;;;;;;;;;;;;2.16;63.66;101835.88;1075092;54;19982;31
2023/02/11 05:37:43;;;;;;;;;;;;;;;2.17;63.74;101837.63;1078437;54;21010;-82
2023/02/11 05:38:55;;;;;;;;;;;;;;;2.21;63.69;101837.53;1082672;54;20009;31
2023/02/11 05:40:01;;;;;;;;;;;;;;;2.23;63.53;101835.69;1076078;54;20812;31
2023/02/11 05:41:23;;;;;;;;;;;;;;;2.21;63.70;101846.31;1088464;54;19923;-83
2023/02/11 05:42:30;;;;;;;;;;;;;;;2.20;63.86;101851.63;1088052;54;19942;-84
2023/02/11 05:44:44;;;;;;;;;;;;;;;2.07;64.01;101848.50;1087897;54;19927;-82
2023/02/11 05:45:45;;;;;;;;;;;;;;;2.00;64.11;101847.81;1103449;39;20858;-82
2023/02/11 05:46:51;;;;;;;;;;;;;;;1.96;64.31;101841.78;1088507;54;19934;-85
2023/02/11 05:49:01;;;;;;;;;;;;;;;1.88;64.46;101838.50;1088280;54;19927;-85
2023/02/11 05:50:05;;;;;;;;;;;;;;;1.83;64.64;101835.13;1088464;54;20092;-81
2023/02/11 05:56:38;;;;;;;;;;;;;;;1.50;66.09;101816.72;1074478;54;19993;31
2023/02/11 05:57:45;;;;;;;;;;;;;;;1.49;66.05;101813.22;1075233;54;19948;31
2023/02/11 06:00:03;;;;;;;;;;;;;;;1.46;66.20;101809.78;1077667;54;19953;31
2023/02/11 06:01:04;;;;;;;;;;;;;;;1.52;66.10;101820.16;1088082;54;19950;-82
2023/02/11 06:02:08;;;;;;;;;;;;;;;1.40;66.57;101818.72;1088100;54;19943;-83
2023/02/11 06:03:10;;;;;;;;;;;;;;;1.35;66.69;101810.94;1088009;54;19954;-83
2023/02/11 06:04:13;;;;;;;;;;;;;;;1.36;66.87;101812.69;1098226;39;20927;-85
2023/02/11 06:05:14;;;;;;;;;;;;;;;1.34;67.12;101811.84;1087933;54;19930;-82
2023/02/11 06:06:18;;;;;;;;;;;;;;;1.38;66.92;101818.78;1087880;54;19998;-83
2023/02/11 06:07:19;;;;;;;;;;;;;;;1.43;67.07;101828.31;1087865;54;20916;-83
2023/02/11 06:08:23;;;;;;;;;;;;;;;1.45;66.63;101813.34;1087926;54;19947;-84
2023/02/11 06:09:24;;;;;;;;;;;;;;;1.42;66.97;101818.72;1087956;54;19966;-83
2023/02/11 06:10:28;;;;;;;;;;;;;;;1.42;66.71;101819.56;1088027;46;19942;-84
2023/02/11 06:11:29;;;;;;;;;;;;;;;1.43;66.77;101815.13;1087917;54;19943;-85
2023/02/11 06:12:33;;;;;;;;;;;;;;;1.50;66.62;101822.00;1088045;54;19942;-83
2023/02/11 06:13:35;;;;;;;;;;;;;;;1.51;66.79;101813.19;1087857;54;19943;-83
2023/02/11 06:14:38;;;;;;;;;;;;;;;1.53;66.74;101816.63;1087903;54;19942;-81
2023/02/11 06:15:42;;;;;;;;;;;;;;;1.47;66.90;101812.38;1087779;54;19942;-83
2023/02/11 06:16:47;;;;;;;;;;;;;;;1.49;66.70;101807.94;1087854;54;20635;-84
2023/02/11 06:17:48;;;;;;;;;;;;;;;1.44;67.07;101807.22;1087989;54;19934;-84
2023/02/11 06:18:52;;;;;;;;;;;;;;;1.43;67.30;101801.97;1087999;54;19942;-85
2023/02/11 06:20:09;;;;;;;;;;;;;;;1.46;67.22;101804.53;1088048;54;19955;-84
2023/02/11 06:21:14;;;;;;;;;;;;;;;1.57;67.00;101810.38;1087880;54;19942;-82
2023/02/11 06:22:15;;;;;;;;;;;;;;;1.59;66.65;101807.66;1087676;54;19942;-83
2023/02/11 06:23:19;;;;;;;;;;;;;;;1.55;66.71;101814.81;1087784;54;19942;-82
2023/02/11 06:24:22;;;;;;;;;;;;;;;1.45;66.90;101808.06;1087794;54;19943;-81
2023/02/11 06:25:24;;;;;;;;;;;;;;;1.40;66.97;101816.97;1087786;54;19949;-82
2023/02/11 06:26:27;;;;;;;;;;;;;;;1.42;67.03;101810.81;1087796;54;19965;-83
2023/02/11 06:27:29;;;;;;;;;;;;;;;1.42;67.24;101818.72;1087837;54;19949;-81
2023/02/11 06:28:34;;;;;;;;;;;;;;;1.49;67.14;101818.47;1087921;54;19942;-83
2023/02/11 06:29:35;;;;;;;;;;;;;;;1.58;66.83;101821.75;1088200;54;19967;-82
2023/02/11 06:30:39;;;;;;;;;;;;;;;1.60;66.82;101827.84;1088147;54;20168;-82
2023/02/11 06:31:43;;;;;;;;;;;;;;;1.52;66.92;101820.16;1088095;54;19949;-83
2023/02/11 06:32:47;;;;;;;;;;;;;;;1.58;66.70;101835.81;1088004;54;19943;-83
2023/02/11 06:33:49;;;;;;;;;;;;;;;1.60;66.49;101823.47;1095651;39;20621;-82
2023/02/11 06:34:53;;;;;;;;;;;;;;;1.58;66.51;101829.66;1088073;54;20609;-81
2023/02/11 06:35:54;;;;;;;;;;;;;;;1.54;66.53;101824.50;1087992;54;19954;-83
2023/02/11 06:36:57;;;;;;;;;;;;;;;1.61;66.66;101824.31;1088085;54;20011;-82
2023/02/11 06:37:58;;;;;;;;;;;;;;;1.67;66.52;101827.66;1088113;54;19950;-83
2023/02/11 06:39:02;;;;;;;;;;;;;;;1.62;66.30;101826.91;1088494;39;20462;-83
2023/02/11 06:41:22;;;;;;;;;;;;;;;1.59;66.82;101824.38;1087701;39;20732;-82
2023/02/11 06:42:23;;;;;;;;;;;;;;;1.60;66.63;101820.84;1087906;54;19946;-82
2023/02/11 06:43:26;;;;;;;;;;;;;;;1.64;66.80;101822.47;1087880;54;19942;-83
2023/02/11 06:44:28;;;;;;;;;;;;;;;1.63;66.76;101817.25;1096506;39;20640;-83
2023/02/11 06:45:32;;;;;;;;;;;;;;;1.63;66.70;101820.72;1087777;54;19971;-81
2023/02/11 06:46:35;;;;;;;;;;;;;;;1.71;66.57;101818.72;1087826;54;19927;-81
2023/02/11 06:47:42;;;;;;;;;;;;;;;1.65;66.56;101820.69;1087835;54;19943;-82
2023/02/11 06:48:43;;;;;;;;;;;;;;;1.69;66.50;101828.47;1087698;54;19995;-83
2023/02/11 06:49:47;;;;;;;;;;;;;;;1.61;66.52;101821.69;1087842;54;19954;-82
2023/02/11 06:50:48;;;;;;;;;;;;;;;1.59;66.65;101816.47;1087802;54;19927;-83
2023/02/11 06:51:52;;;;;;;;;;;;;;;1.49;66.64;101809.72;1087760;54;20642;-81
2023/02/11 06:52:53;;;;;;;;;;;;;;;1.53;66.85;101821.88;1087807;54;19945;-82
2023/02/11 06:53:57;;;;;;;;;;;;;;;1.54;66.58;101819.22;1087765;54;20024;-82
2023/02/11 06:54:58;;;;;;;;;;;;;;;1.46;66.83;101815.94;1087784;54;19943;-82
2023/02/11 06:56:04;;;;;;;;;;;;;;;1.51;66.77;101821.09;1087665;54;20923;-81
2023/02/11 06:57:07;;;;;;;;;;;;;;;1.52;66.74;101818.41;1087826;54;19943;-84
2023/02/11 06:58:09;;;;;;;;;;;;;;;1.54;66.98;101808.69;1087924;54;19950;-82
2023/02/11 06:59:16;;;;;;;;;;;;;;;1.52;66.99;101817.53;1088819;39;20629;-81
2023/02/11 07:00:17;;;;;;;;;;;;;;;1.44;66.90;101817.75;1087784;54;19926;-81
2023/02/11 07:01:21;;;;;;;;;;;;;;;1.43;66.96;101816.03;1087711;54;21074;-83
2023/02/11 07:02:22;;;;;;;;;;;;;;;1.43;67.21;101823.94;1087785;54;19943;-82
2023/02/11 07:03:29;;;;;;;;;;;;;;;1.45;67.35;101810.69;1087739;54;19943;-82
2023/02/11 07:04:30;;;;;;;;;;;;;;;1.44;67.16;101824.78;1087973;54;19968;-83
2023/02/11 07:05:35;;;;;;;;;;;;;;;1.47;67.14;101820.28;1087870;54;19998;-80
2023/02/11 07:06:37;;;;;;;;;;;;;;;1.48;67.14;101823.81;1087847;54;19943;-82
2023/02/11 10:48:00;;;;;;;;;;;;;;;9.12;49.49;101782.59;1090805;31;21026;-82
2023/02/11 10:50:29;;;;;;;;;;;;;;;9.55;48.65;101773.75;1088140;54;19950;-82
2023/02/11 10:51:36;;;;;;;;;;;;;;;9.81;48.35;101778.34;1088271;54;19943;-82
2023/02/11 10:52:37;;;;;;;;;;;;;;;9.81;47.86;101781.00;1088124;54;19938;-83
2023/02/11 10:53:41;;;;;;;;;;;;;;;9.74;47.71;101766.31;1088173;54;19943;-81
2023/02/11 10:54:57;;;;;;;;;;;;;;;9.54;48.17;101774.72;1088121;54;19942;-82
2023/02/11 10:56:02;;;;;;;;;;;;;;;9.58;48.67;101782.44;1089242;46;19942;-80
2023/02/11 10:57:03;;;;;;;;;;;;;;;9.78;48.31;101764.28;1088059;54;19927;-82
2023/02/11 10:58:07;;;;;;;;;;;;;;;9.75;48.00;101776.03;1088176;54;19950;-83
2023/02/11 10:59:14;;;;;;;;;;;;;;;9.54;48.12;101770.22;1088608;46;19967;-82
2023/02/11 11:00:45;;;;;;;;;;;;;;;9.23;48.96;101779.28;1087969;54;19942;-82
2023/02/11 11:01:48;;;;;;;;;;;;;;;9.33;49.10;101778.63;1087748;54;19943;-82
2023/02/11 11:02:56;;;;;;;;;;;;;;;9.11;49.08;101786.22;1087663;54;20635;-83
2023/02/11 11:03:58;;;;;;;;;;;;;;;9.07;49.71;101777.53;1087748;54;19931;-80
2023/02/11 11:05:04;;;;;;;;;;;;;;;9.00;49.92;101773.53;1087957;54;20812;-82
2023/02/11 11:06:11;;;;;;;;;;;;;;;8.58;50.78;101783.97;1087831;54;19949;-83
2023/02/11 11:07:17;;;;;;;;;;;;;;;8.64;50.74;101782.75;1087771;54;20706;-81
2023/02/11 11:08:21;;;;;;;;;;;;;;;8.43;51.23;101780.34;1087960;54;19926;-82
2023/02/11 11:09:42;;;;;;;;;;;;;;;8.47;51.35;101770.38;1087963;54;19964;-84
2023/02/11 11:10:47;;;;;;;;;;;;;;;8.34;51.49;101768.44;1087894;54;19926;-83
2023/02/11 11:11:53;;;;;;;;;;;;;;;8.33;51.63;101766.72;1087926;54;19992;-81
2023/02/11 11:12:57;;;;;;;;;;;;;;;8.31;52.01;101770.41;1087954;54;19927;-82
2023/02/11 11:14:02;;;;;;;;;;;;;;;8.26;52.23;101763.53;1088225;54;20661;-83